Time;durP1;ratioP1;P1;durP2;ratioP2;P2;SDS_P1;SDS_P2;PMS_P1;PMS_P2;Temp;Humidity;BMP_temperature;BMP_pressure;BME280_temperature;BME280_humidity;BME280_pressure;Samples;Min_cycle;Max_cycle;Signal;HPM_P1;HPM_P2
2022/01/17 00:01:24;;;;;;;23.70;13.43;;;4.70;94.50;;;;;;5074705;28;20024;-78
2022/01/17 00:03:50;;;;;;;24.27;13.75;;;4.80;94.40;;;;;;5058151;28;20500;-78
2022/01/17 00:06:17;;;;;;;24.50;14.25;;;4.80;94.30;;;;;;5074805;28;20024;-78
2022/01/17 00:08:46;;;;;;;28.83;14.38;;;4.80;94.10;;;;;;5058131;28;20025;-78
2022/01/17 00:11:14;;;;;;;22.02;13.57;;;4.80;94.00;;;;;;5074615;28;20032;-77
2022/01/17 00:13:41;;;;;;;18.98;11.98;;;4.90;93.80;;;;;;5076110;28;20017;-78
2022/01/17 00:16:21;;;;;;;23.38;13.27;;;4.90;93.60;;;;;;5074019;28;20032;-78
2022/01/17 00:21:16;;;;;;;25.02;13.75;;;5.00;93.20;;;;;;5075734;28;20397;-78
2022/01/17 00:23:43;;;;;;;24.55;12.63;;;5.00;93.20;;;;;;5057743;28;20021;-78
2022/01/17 00:26:10;;;;;;;21.23;11.77;;;5.00;92.90;;;;;;5074547;28;20040;-79
2022/01/17 00:28:36;;;;;;;24.55;12.98;;;5.10;92.70;;;;;;5078666;28;20040;-79
2022/01/17 00:31:05;;;;;;;22.65;12.45;;;5.10;92.50;;;;;;5096031;28;20016;-79
2022/01/17 00:33:34;;;;;;;19.33;11.52;;;5.10;92.80;;;;;;5095660;28;20025;-78
2022/01/17 00:36:02;;;;;;;23.00;11.40;;;5.10;92.20;;;;;;5060954;28;20032;-78
2022/01/17 00:38:28;;;;;;;23.77;12.07;;;5.10;92.10;;;;;;5077796;28;20043;-78
2022/01/17 00:40:54;;;;;;;22.33;11.75;;;5.10;92.10;;;;;;5095504;28;20066;-79
2022/01/17 00:43:20;;;;;;;19.65;11.45;;;5.20;92.00;;;;;;5077567;28;20028;-79
2022/01/17 00:45:47;;;;;;;24.08;13.00;;;5.20;91.90;;;;;;5095640;28;20103;-79
2022/01/17 00:48:14;;;;;;;19.63;12.02;;;5.20;91.70;;;;;;5077150;28;20016;-78
2022/01/17 00:50:41;;;;;;;20.10;11.48;;;5.20;91.70;;;;;;5077023;28;20055;-79
2022/01/17 00:53:09;;;;;;;25.95;12.73;;;5.30;91.60;;;;;;5077138;28;20110;-79
2022/01/17 00:55:37;;;;;;;20.80;11.93;;;5.30;91.50;;;;;;5060405;28;20384;-78
2022/01/17 00:58:05;;;;;;;19.52;11.35;;;5.30;91.40;;;;;;5060456;28;20028;-78
2022/01/17 01:00:31;;;;;;;17.38;11.02;;;5.30;91.30;;;;;;5076920;28;20032;-78
2022/01/17 01:02:57;;;;;;;20.52;10.93;;;5.30;91.20;;;;;;5060174;28;20020;-78
2022/01/17 01:05:24;;;;;;;22.75;11.15;;;5.30;91.20;;;;;;5077117;28;20024;-78
2022/01/17 01:07:54;;;;;;;18.85;11.00;;;5.30;91.20;;;;;;5076814;28;20024;-78
2022/01/17 01:10:21;;;;;;;22.00;11.43;;;5.30;91.00;;;;;;5076762;28;20487;-79
2022/01/17 01:13:07;;;;;;;17.35;11.20;;;5.30;90.90;;;;;;5095030;28;20448;-79
2022/01/17 01:18:12;;;;;;;20.98;11.48;;;5.30;90.90;;;;;;5076792;28;20427;-79
2022/01/17 01:28:38;;;;;;;16.58;9.57;;;5.30;91.00;;;;;;5094237;28;20098;-78
2022/01/17 01:31:12;;;;;;;18.77;10.48;;;5.30;91.40;;;;;;5094742;28;20095;-78
2022/01/17 01:33:44;;;;;;;15.90;9.68;;;5.30;91.60;;;;;;5076343;28;20400;-78
2022/01/17 01:36:23;;;;;;;;;;;5.30;91.70;;;;;;5094804;28;20525;-78
2022/01/17 01:38:50;;;;;;;27.77;11.40;;;5.30;92.00;;;;;;5094806;28;19994;-78
2022/01/17 01:41:15;;;;;;;24.88;12.23;;;5.20;92.70;;;;;;5076335;28;20024;-78
2022/01/17 01:43:43;;;;;;;18.15;10.48;;;5.20;93.20;;;;;;5076258;28;20027;-79
2022/01/17 01:46:11;;;;;;;16.58;9.65;;;5.20;93.30;;;;;;5094060;28;20028;-79
2022/01/17 01:48:37;;;;;;;18.13;9.48;;;5.10;93.40;;;;;;5075999;28;20020;-79
2022/01/17 01:51:04;;;;;;;21.55;12.00;;;5.10;93.40;;;;;;5075967;28;20020;-79
2022/01/17 01:53:30;;;;;;;19.83;10.90;;;5.10;93.50;;;;;;5076093;28;20482;-78
2022/01/17 01:55:59;;;;;;;17.00;9.52;;;5.10;93.70;;;;;;5094089;28;20031;-77
2022/01/17 01:58:34;;;;;;;18.80;10.40;;;5.10;93.70;;;;;;5093968;28;20089;-78
2022/01/17 02:01:01;;;;;;;18.25;8.80;;;5.10;93.60;;;;;;5093679;28;20460;-78
2022/01/17 02:03:27;;;;;;;17.63;10.02;;;5.10;93.70;;;;;;5093806;28;20016;-78
2022/01/17 02:05:53;;;;;;;15.88;9.98;;;5.10;94.00;;;;;;5074556;28;20491;-79
2022/01/17 02:08:20;;;;;;;17.77;9.25;;;5.10;93.60;;;;;;5093693;28;20029;-79
2022/01/17 02:10:47;;;;;;;16.63;10.15;;;5.10;93.70;;;;;;5092915;28;20028;-79
2022/01/17 02:13:13;;;;;;;16.33;8.82;;;5.10;93.80;;;;;;5093416;28;20070;-79
2022/01/17 02:15:42;;;;;;;16.80;10.65;;;5.10;93.90;;;;;;5075584;28;20427;-78
2022/01/17 02:18:12;;;;;;;15.55;9.73;;;5.10;93.90;;;;;;5093726;28;20542;-78
2022/01/17 02:20:45;;;;;;;17.40;10.57;;;5.20;93.90;;;;;;5093858;28;20484;-78
2022/01/17 02:23:13;;;;;;;15.43;9.38;;;5.20;93.80;;;;;;5075706;28;20063;-79
2022/01/17 02:25:39;;;;;;;18.30;10.82;;;5.20;94.00;;;;;;5075923;28;20145;-80
2022/01/17 02:28:05;;;;;;;16.73;10.05;;;5.20;93.90;;;;;;5093698;28;20055;-79
2022/01/17 02:30:33;;;;;;;15.43;9.73;;;5.20;94.00;;;;;;5093147;28;20052;-78
2022/01/17 02:33:01;;;;;;;23.02;11.13;;;5.20;94.00;;;;;;5075585;28;20534;-79
2022/01/17 02:35:29;;;;;;;18.50;11.30;;;5.20;94.10;;;;;;5058764;28;20031;-79
2022/01/17 02:37:57;;;;;;;15.38;10.13;;;5.20;94.00;;;;;;5093426;28;20023;-78
2022/01/17 02:40:23;;;;;;;14.82;9.43;;;5.20;94.10;;;;;;5093489;28;20035;-80
2022/01/17 02:43:00;;;;;;;22.08;12.30;;;5.20;94.10;;;;;;5093411;28;20107;-79
2022/01/17 02:46:24;;;;;;;17.50;10.18;;;5.20;94.30;;;;;;5076629;28;20039;-79
2022/01/17 02:48:33;;;;;;;15.65;9.65;;;5.20;94.40;;;;;;5093149;28;20028;-79
2022/01/17 02:51:03;;;;;;;19.58;11.15;;;5.20;94.50;;;;;;5093401;28;20020;-80
2022/01/17 02:53:31;;;;;;;16.30;10.68;;;5.20;94.60;;;;;;5093736;28;20056;-79
2022/01/17 02:56:08;;;;;;;21.90;11.45;;;5.20;94.60;;;;;;5093363;28;20099;-79
2022/01/17 02:58:35;;;;;;;19.65;11.23;;;5.20;94.60;;;;;;5075367;28;20027;-79
2022/01/17 03:01:24;;;;;;;16.17;10.80;;;5.20;94.60;;;;;;5058490;28;20508;-80
2022/01/17 03:03:51;;;;;;;15.80;10.68;;;5.20;94.60;;;;;;5075085;28;20027;-79
2022/01/17 03:06:26;;;;;;;19.50;12.00;;;5.20;94.70;;;;;;5075336;28;20024;-79
2022/01/17 03:08:53;;;;;;;19.50;11.65;;;5.20;94.70;;;;;;5075035;28;20020;-79
2022/01/17 03:11:23;;;;;;;22.08;11.85;;;5.30;95.50;;;;;;5075188;28;20107;-79
2022/01/17 03:13:51;;;;;;;21.00;11.13;;;5.30;95.20;;;;;;5093271;28;20032;-79
2022/01/17 03:16:28;;;;;;;21.55;10.88;;;5.30;95.50;;;;;;5093137;28;20477;-79
2022/01/17 03:18:57;;;;;;;20.77;12.80;;;5.30;94.90;;;;;;5076663;28;20035;-79
2022/01/17 03:21:27;;;;;;;21.13;12.18;;;5.30;94.90;;;;;;5093110;28;20021;-79
2022/01/17 03:23:54;;;;;;;19.63;11.45;;;5.30;94.80;;;;;;5078650;28;20024;-79
2022/01/17 03:26:21;;;;;;;18.85;11.77;;;5.30;94.80;;;;;;5097036;28;20020;-79
2022/01/17 03:28:48;;;;;;;17.98;10.85;;;5.30;95.20;;;;;;5075079;28;20044;-79
2022/01/17 03:31:15;;;;;;;19.58;10.40;;;5.30;95.50;;;;;;5077576;28;20033;-79
2022/01/17 03:33:43;;;;;;;18.50;11.02;;;5.30;95.20;;;;;;5079674;28;20020;-79
2022/01/17 03:36:10;;;;;;;20.15;9.73;;;5.40;95.00;;;;;;5078701;28;20020;-79
2022/01/17 03:38:37;;;;;;;21.02;11.75;;;5.30;95.00;;;;;;5079676;28;20017;-79
2022/01/17 03:41:06;;;;;;;20.85;11.32;;;5.40;95.00;;;;;;5076081;28;20020;-78
2022/01/17 03:43:33;;;;;;;16.23;10.18;;;5.30;95.40;;;;;;5058967;28;20045;-79
2022/01/17 03:45:59;;;;;;;20.58;10.70;;;5.40;95.70;;;;;;5058333;28;20032;-79
2022/01/17 03:48:27;;;;;;;17.33;11.80;;;5.40;95.80;;;;;;5076457;28;20024;-79
2022/01/17 03:50:55;;;;;;;17.30;10.48;;;5.40;95.90;;;;;;5076218;28;20111;-78
2022/01/17 03:53:21;;;;;;;20.15;10.68;;;5.40;95.80;;;;;;5075077;28;20040;-79
2022/01/17 03:55:50;;;;;;;17.92;11.23;;;5.30;95.70;;;;;;5058184;28;20028;-78
2022/01/17 03:58:17;;;;;;;17.33;10.00;;;5.30;95.40;;;;;;5074899;28;20017;-78
2022/01/17 04:00:47;;;;;;;19.63;11.43;;;5.30;95.20;;;;;;5058173;28;20033;-78
2022/01/17 04:03:14;;;;;;;20.27;10.55;;;5.30;95.10;;;;;;5075143;28;20024;-78
2022/01/17 04:05:40;;;;;;;14.60;9.07;;;5.40;94.90;;;;;;5074762;28;20094;-78
2022/01/17 04:08:08;;;;;;;18.52;10.48;;;5.40;94.50;;;;;;5075967;28;20021;-78
2022/01/17 04:10:35;;;;;;;18.00;10.18;;;5.40;94.70;;;;;;5074568;28;20058;-78
2022/01/17 04:13:10;;;;;;;19.55;11.02;;;5.40;94.20;;;;;;5076040;28;20016;-78
2022/01/17 04:15:39;;;;;;;16.10;10.60;;;5.50;93.90;;;;;;5075805;28;20020;-79
2022/01/17 04:18:08;;;;;;;17.27;9.60;;;5.50;93.80;;;;;;5074433;28;20013;-79
2022/01/17 04:20:37;;;;;;;17.77;9.48;;;5.50;93.70;;;;;;5074310;28;20032;-79
2022/01/17 04:23:12;;;;;;;13.45;9.63;;;5.50;93.40;;;;;;5074577;28;20040;-79
2022/01/17 04:25:40;;;;;;;15.98;7.78;;;5.60;93.10;;;;;;5074371;28;20481;-80
2022/01/17 04:28:08;;;;;;;12.57;7.95;;;5.60;93.00;;;;;;5074411;28;20491;-78
2022/01/17 04:30:43;;;;;;;12.30;7.50;;;5.60;92.90;;;;;;5057508;28;20048;-79
2022/01/17 04:33:10;;;;;;;13.23;7.85;;;5.60;92.60;;;;;;5074069;28;20518;-79
2022/01/17 04:35:39;;;;;;;9.63;5.82;;;5.60;92.60;;;;;;5075471;28;20020;-79
2022/01/17 04:38:13;;;;;;;10.43;6.68;;;5.60;92.50;;;;;;5074158;28;20020;-79
2022/01/17 04:40:41;;;;;;;13.13;6.88;;;5.60;92.50;;;;;;5057878;28;20106;-79
2022/01/17 04:43:20;;;;;;;12.85;7.35;;;5.60;92.40;;;;;;5075386;28;20126;-80
2022/01/17 04:45:49;;;;;;;10.18;5.93;;;5.60;92.70;;;;;;5074062;28;20028;-79
2022/01/17 04:48:17;;;;;;;15.65;6.88;;;5.50;92.50;;;;;;5074242;28;20055;-78
2022/01/17 04:50:44;;;;;;;13.63;6.75;;;5.50;92.70;;;;;;5073804;28;20081;-79
2022/01/17 04:53:16;;;;;;;15.57;8.05;;;5.50;92.70;;;;;;5075113;28;20016;-79
2022/01/17 04:55:42;;;;;;;14.48;6.53;;;5.50;92.70;;;;;;5073977;28;20040;-79
2022/01/17 04:58:08;;;;;;;15.25;8.13;;;5.50;92.70;;;;;;5056582;28;20470;-79
2022/01/17 05:00:35;;;;;;;12.32;7.13;;;5.50;92.50;;;;;;5075307;28;20108;-79
2022/01/17 05:03:03;;;;;;;10.30;6.45;;;5.50;92.50;;;;;;5075021;28;20029;-79
2022/01/17 05:05:28;;;;;;;13.23;7.97;;;5.50;92.80;;;;;;5075294;28;20035;-79
2022/01/17 05:07:54;;;;;;;12.25;6.57;;;5.50;92.30;;;;;;5074903;28;20028;-79
2022/01/17 05:10:22;;;;;;;15.27;7.63;;;5.50;92.20;;;;;;5074784;28;20029;-80
2022/01/17 05:12:56;;;;;;;14.45;6.10;;;5.60;92.00;;;;;;5073347;28;20017;-80
2022/01/17 05:15:36;;;;;;;14.55;7.20;;;5.60;91.90;;;;;;5074937;28;20468;-80
2022/01/17 05:18:25;;;;;;;13.73;6.53;;;5.60;91.70;;;;;;5074635;28;20021;-79
2022/01/17 05:20:51;;;;;;;11.10;5.18;;;5.60;91.70;;;;;;5074769;28;20031;-79
2022/01/17 05:23:16;;;;;;;11.40;6.30;;;5.60;91.80;;;;;;5074432;28;20029;-79
2022/01/17 05:25:42;;;;;;;13.40;7.03;;;5.70;91.70;;;;;;5072848;28;20115;-79
2022/01/17 05:28:08;;;;;;;14.65;7.70;;;5.70;91.90;;;;;;5072931;28;20042;-79
2022/01/17 05:30:34;;;;;;;8.68;5.90;;;5.70;92.00;;;;;;5093144;28;20135;-80
2022/01/17 05:33:00;;;;;;;10.30;5.40;;;5.70;91.80;;;;;;5094500;28;20119;-80
2022/01/17 05:35:29;;;;;;;10.43;6.25;;;5.70;91.80;;;;;;5094658;28;20103;-79
2022/01/17 05:37:55;;;;;;;9.73;6.50;;;5.70;91.90;;;;;;5076543;28;20040;-80
2022/01/17 05:40:22;;;;;;;13.35;6.60;;;5.70;92.20;;;;;;5076286;28;20361;-80
2022/01/17 05:42:50;;;;;;;11.80;6.97;;;5.70;92.40;;;;;;5076103;28;20474;-81
2022/01/17 05:45:17;;;;;;;10.77;5.68;;;5.70;92.80;;;;;;5093577;28;20028;-79
2022/01/17 05:47:45;;;;;;;12.60;6.95;;;5.70;93.20;;;;;;5058900;28;20065;-80
2022/01/17 05:50:11;;;;;;;10.25;5.53;;;5.70;93.60;;;;;;5075478;28;20067;-79
2022/01/17 05:52:38;;;;;;;11.25;6.38;;;5.70;93.90;;;;;;5076070;28;20469;-79
2022/01/17 05:55:07;;;;;;;13.65;7.18;;;5.70;94.30;;;;;;5094024;28;20023;-79
2022/01/17 05:57:35;;;;;;;10.85;7.00;;;5.60;94.80;;;;;;5075665;28;20039;-80
2022/01/17 06:00:06;;;;;;;13.93;8.15;;;5.60;95.10;;;;;;5075757;28;20512;-80
2022/01/17 06:02:33;;;;;;;13.25;6.72;;;5.60;95.40;;;;;;5075416;28;20059;-79
2022/01/17 06:04:58;;;;;;;14.98;8.05;;;5.50;95.60;;;;;;5093817;28;20141;-78
2022/01/17 06:07:24;;;;;;;10.40;6.72;;;5.50;95.70;;;;;;5093747;28;20157;-80
2022/01/17 06:09:51;;;;;;;13.02;7.38;;;5.50;95.90;;;;;;5094824;28;20024;-80
2022/01/17 06:12:16;;;;;;;11.73;6.75;;;5.50;96.00;;;;;;5076125;28;20051;-77
2022/01/17 06:14:42;;;;;;;13.68;7.18;;;5.40;95.80;;;;;;5094373;28;20465;-78
2022/01/17 06:17:08;;;;;;;12.90;6.75;;;5.50;96.10;;;;;;5093659;28;20027;-80
2022/01/17 06:19:34;;;;;;;12.48;6.15;;;5.50;95.40;;;;;;5075737;28;20568;-82
2022/01/17 06:22:01;;;;;;;10.23;6.78;;;5.50;95.00;;;;;;5094154;28;20031;-80
2022/01/17 06:24:26;;;;;;;11.90;6.63;;;5.50;94.90;;;;;;5094785;28;20050;-79
2022/01/17 06:26:53;;;;;;;11.90;5.78;;;5.50;94.80;;;;;;5094602;28;20491;-78
2022/01/17 06:29:21;;;;;;;10.20;7.00;;;5.50;94.50;;;;;;5093753;28;20044;-79
2022/01/17 06:31:46;;;;;;;13.10;7.10;;;5.50;94.10;;;;;;5075145;28;20027;-78
2022/01/17 06:34:13;;;;;;;14.25;7.32;;;5.60;94.00;;;;;;5074981;28;20024;-78
2022/01/17 06:36:41;;;;;;;11.18;6.22;;;5.60;94.00;;;;;;5091838;28;20020;-76
2022/01/17 06:39:07;;;;;;;15.68;7.15;;;5.60;93.60;;;;;;5073291;28;20046;-78
2022/01/17 06:41:33;;;;;;;17.63;7.32;;;5.60;93.70;;;;;;5091690;28;20020;-77
2022/01/17 06:43:59;;;;;;;12.43;6.72;;;5.70;93.70;;;;;;5074907;28;20469;-76
2022/01/17 06:46:25;;;;;;;12.45;7.70;;;5.70;93.70;;;;;;5092994;28;20028;-76
2022/01/17 06:48:51;;;;;;;13.27;7.05;;;5.70;94.00;;;;;;5092745;28;20101;-74
2022/01/17 06:51:17;;;;;;;15.88;7.82;;;5.70;94.00;;;;;;5092955;28;20020;-75
2022/01/17 06:53:43;;;;;;;12.48;6.22;;;5.70;94.10;;;;;;5093276;28;20050;-75
2022/01/17 06:56:09;;;;;;;15.15;7.07;;;5.70;94.50;;;;;;5093035;28;20024;-77
2022/01/17 06:58:36;;;;;;;9.35;6.60;;;5.70;94.10;;;;;;5096497;28;20027;-76
2022/01/17 07:01:05;;;;;;;11.20;6.57;;;5.70;94.00;;;;;;5096972;28;20028;-76
2022/01/17 07:03:31;;;;;;;9.07;6.18;;;5.60;93.90;;;;;;5079203;28;20118;-76
2022/01/17 07:05:56;;;;;;;14.27;7.43;;;5.60;93.90;;;;;;5096537;28;20024;-76
2022/01/17 07:08:22;;;;;;;10.45;6.43;;;5.70;93.60;;;;;;5079031;28;20023;-75
2022/01/17 07:10:48;;;;;;;7.82;5.03;;;5.70;93.70;;;;;;5078637;28;20028;-75
2022/01/17 07:13:13;;;;;;;9.38;5.07;;;5.70;93.20;;;;;;5078880;28;20114;-75
2022/01/17 07:15:39;;;;;;;9.23;4.68;;;5.80;93.00;;;;;;5096884;28;20027;-75
2022/01/17 07:18:06;;;;;;;9.68;5.40;;;5.80;92.90;;;;;;5097262;28;20065;-77
2022/01/17 07:20:32;;;;;;;12.75;5.30;;;5.80;92.70;;;;;;5097218;28;20077;-77
2022/01/17 07:22:58;;;;;;;14.25;6.13;;;5.90;92.60;;;;;;5097161;28;20051;-75
2022/01/17 07:25:24;;;;;;;10.10;5.35;;;5.90;92.70;;;;;;5096781;28;20054;-78
2022/01/17 07:27:55;;;;;;;8.32;4.78;;;5.90;92.60;;;;;;5068290;28;20020;-77
2022/01/17 07:30:24;;;;;;;10.02;4.75;;;5.90;92.70;;;;;;5094312;28;20066;-82
2022/01/17 07:32:52;;;;;;;8.27;5.13;;;6.00;92.80;;;;;;5070661;28;20094;-82
2022/01/17 07:35:20;;;;;;;9.43;4.45;;;6.00;93.10;;;;;;5087265;28;20485;-80
2022/01/17 07:37:49;;;;;;;9.40;5.38;;;6.00;93.00;;;;;;5088468;28;20032;-80
2022/01/17 07:40:15;;;;;;;6.47;3.80;;;6.00;92.70;;;;;;5083785;28;20029;-81
2022/01/17 07:42:45;;;;;;;10.18;5.97;;;6.00;92.40;;;;;;5074726;28;20024;-78
2022/01/17 07:45:15;;;;;;;8.05;3.80;;;6.00;92.20;;;;;;5097007;28;20024;-78
2022/01/17 07:50:17;;;;;;;7.18;3.67;;;6.00;91.80;;;;;;5078601;28;20097;-78
2022/01/17 07:52:44;;;;;;;7.88;4.28;;;6.10;91.70;;;;;;5097087;28;20093;-80
2022/01/17 07:55:16;;;;;;;7.50;2.70;;;6.10;91.60;;;;;;5061678;28;20031;-78
2022/01/17 07:57:42;;;;;;;7.30;3.78;;;6.10;91.50;;;;;;5096389;28;20464;-78
2022/01/17 08:00:20;;;;;;;7.18;2.75;;;6.10;91.70;;;;;;5066716;28;20035;-78
2022/01/17 08:02:49;;;;;;;5.57;2.88;;;6.10;91.90;;;;;;5081369;28;20048;-80
2022/01/17 08:05:17;;;;;;;5.03;2.97;;;6.00;92.20;;;;;;5058227;28;20029;-77
2022/01/17 08:07:45;;;;;;;4.45;2.20;;;6.00;92.50;;;;;;5078233;28;20237;-75
2022/01/17 08:10:12;;;;;;;5.88;2.72;;;5.90;92.80;;;;;;5076792;28;20491;-75
2022/01/17 08:12:39;;;;;;;4.72;2.70;;;5.90;92.80;;;;;;5078335;28;20107;-80
2022/01/17 08:15:05;;;;;;;10.70;3.80;;;5.90;93.20;;;;;;5069955;28;20028;-80
2022/01/17 08:17:32;;;;;;;4.47;2.58;;;5.80;93.30;;;;;;5059242;28;20166;-79
2022/01/17 08:19:58;;;;;;;6.18;2.70;;;5.80;94.20;;;;;;5057790;28;20024;-80
2022/01/17 08:22:24;;;;;;;3.53;2.20;;;5.70;94.60;;;;;;5057671;28;20036;-76
2022/01/17 08:24:51;;;;;;;5.68;3.03;;;5.70;94.90;;;;;;5058041;28;20020;-77
2022/01/17 08:27:18;;;;;;;5.60;2.60;;;5.70;95.00;;;;;;5057892;28;20024;-78
2022/01/17 08:29:43;;;;;;;5.55;2.83;;;5.80;95.10;;;;;;5075467;28;20458;-78
2022/01/17 08:32:11;;;;;;;3.28;2.20;;;5.70;95.30;;;;;;5059702;28;20449;-77
2022/01/17 08:34:38;;;;;;;4.93;2.97;;;5.70;95.40;;;;;;5075518;28;20045;-78
2022/01/17 08:37:05;;;;;;;5.45;2.72;;;5.70;95.50;;;;;;5075282;28;20523;-78
2022/01/17 08:39:33;;;;;;;5.97;2.45;;;5.70;95.80;;;;;;5075572;28;20055;-75
2022/01/17 08:42:07;;;;;;;6.55;2.33;;;5.70;96.20;;;;;;5075466;28;20465;-77
2022/01/17 08:44:33;;;;;;;6.40;1.98;;;5.70;96.30;;;;;;5075452;28;20020;-80
2022/01/17 08:47:00;;;;;;;1.95;1.45;;;5.70;96.40;;;;;;5075523;28;20033;-75
2022/01/17 08:49:27;;;;;;;3.92;2.13;;;5.70;96.40;;;;;;5060792;28;20020;-76
2022/01/17 08:51:55;;;;;;;6.72;2.83;;;5.60;96.20;;;;;;5075600;28;20046;-75
2022/01/17 08:54:22;;;;;;;3.97;1.98;;;5.70;96.40;;;;;;5074439;28;20131;-75
2022/01/17 08:56:50;;;;;;;5.20;1.45;;;5.70;96.60;;;;;;5075203;28;20024;-74
2022/01/17 08:59:17;;;;;;;4.30;1.52;;;5.70;96.30;;;;;;5075116;28;20020;-76
2022/01/17 09:01:43;;;;;;;3.42;2.03;;;5.70;96.40;;;;;;5056975;28;20028;-74
2022/01/17 09:04:10;;;;;;;4.70;2.00;;;5.80;96.20;;;;;;5056639;28;20389;-77
2022/01/17 09:06:37;;;;;;;9.30;1.63;;;5.80;95.80;;;;;;5056822;28;20025;-76
2022/01/17 09:09:04;;;;;;;4.88;1.35;;;5.90;95.60;;;;;;5061527;28;20028;-75
2022/01/17 09:11:30;;;;;;;1.25;1.15;;;5.90;95.40;;;;;;5068149;28;20040;-77
2022/01/17 09:13:57;;;;;;;4.90;1.45;;;5.90;95.10;;;;;;5094265;28;20095;-76
2022/01/17 09:16:24;;;;;;;4.63;1.80;;;5.90;95.20;;;;;;5094347;28;20032;-75
2022/01/17 09:18:52;;;;;;;2.67;1.33;;;5.90;94.70;;;;;;5095023;28;20016;-77
2022/01/17 09:21:20;;;;;;;7.55;1.52;;;6.00;94.80;;;;;;5053499;28;20024;-78
2022/01/17 09:23:46;;;;;;;2.65;1.83;;;6.00;94.60;;;;;;5070136;28;20574;-75
2022/01/17 09:26:15;;;;;;;3.20;1.40;;;6.00;94.20;;;;;;5077165;28;20024;-75
2022/01/17 09:28:45;;;;;;;8.38;1.98;;;6.00;94.00;;;;;;5094652;28;20044;-77
2022/01/17 09:31:17;;;;;;;10.30;1.88;;;6.10;94.30;;;;;;5081574;28;20030;-78
2022/01/17 09:33:45;;;;;;;3.20;1.15;;;6.10;93.70;;;;;;5092430;28;20020;-76
2022/01/17 09:36:12;;;;;;;5.53;2.53;;;6.10;93.50;;;;;;5059917;28;20115;-78
2022/01/17 09:38:39;;;;;;;3.40;1.70;;;6.10;93.70;;;;;;5059023;28;20028;-78
2022/01/17 09:41:07;;;;;;;3.25;1.40;;;6.20;93.40;;;;;;5095464;28;20032;-81
2022/01/17 09:43:35;;;;;;;4.05;1.60;;;6.20;93.30;;;;;;5059648;28;20123;-79
2022/01/17 09:46:03;;;;;;;5.43;1.58;;;6.20;93.60;;;;;;5076950;28;20028;-79
2022/01/17 09:48:37;;;;;;;8.57;1.38;;;6.30;93.50;;;;;;5058992;28;20085;-76
2022/01/17 09:51:18;;;;;;;5.10;1.23;;;6.30;93.90;;;;;;5110063;28;20027;-78
2022/01/17 09:53:45;;;;;;;3.92;1.48;;;6.30;93.40;;;;;;5114714;28;20023;-76
2022/01/17 09:56:13;;;;;;;3.22;1.70;;;6.30;93.40;;;;;;5096561;28;20015;-76
2022/01/17 09:58:50;;;;;;;2.22;0.90;;;6.40;93.30;;;;;;5096305;28;20488;-76
2022/01/17 10:01:24;;;;;;;2.70;1.20;;;6.40;93.30;;;;;;5096227;28;20485;-79
2022/01/17 10:03:52;;;;;;;2.42;1.00;;;6.40;93.50;;;;;;5114494;28;20094;-78
2022/01/17 10:06:19;;;;;;;2.67;0.70;;;6.40;93.20;;;;;;5061971;28;20052;-79
2022/01/17 10:08:46;;;;;;;3.92;1.40;;;6.40;93.30;;;;;;5039447;28;20028;-80
2022/01/17 10:11:15;;;;;;;1.98;1.05;;;6.50;93.10;;;;;;5080114;28;20027;-76
2022/01/17 10:13:45;;;;;;;3.55;0.98;;;6.50;92.80;;;;;;5076582;28;20016;-76
2022/01/17 10:16:15;;;;;;;4.30;1.00;;;6.50;93.00;;;;;;5075927;28;20038;-75
2022/01/17 10:18:54;;;;;;;1.95;1.00;;;6.50;92.90;;;;;;5093584;28;20026;-76
2022/01/17 10:21:51;;;;;;;1.80;0.95;;;6.60;92.70;;;;;;5092704;28;20055;-79
2022/01/17 10:34:54;;;;;;;2.17;1.00;;;6.80;92.20;;;;;;5073537;28;20469;-77
2022/01/17 10:37:25;;;;;;;1.85;1.00;;;6.80;92.00;;;;;;5068689;28;20024;-75
2022/01/17 10:39:58;;;;;;;2.05;1.05;;;6.90;91.90;;;;;;5068655;28;20029;-75
2022/01/17 10:42:31;;;;;;;0.98;0.93;;;6.80;91.80;;;;;;5071612;28;20026;-75
2022/01/17 10:45:12;;;;;;;5.47;1.50;;;6.80;92.10;;;;;;5073270;28;20029;-75
2022/01/17 10:47:43;;;;;;;1.50;1.08;;;6.80;92.30;;;;;;5065789;28;20044;-78
2022/01/17 10:50:36;;;;;;;1.33;1.00;;;6.80;92.70;;;;;;5071603;28;20319;-77
2022/01/17 10:53:08;;;;;;;3.42;1.23;;;6.80;93.10;;;;;;5071601;28;20377;-78
2022/01/17 10:55:45;;;;;;;2.35;1.23;;;6.80;93.00;;;;;;5071877;28;20023;-78
2022/01/17 10:58:15;;;;;;;4.10;1.92;;;6.80;93.30;;;;;;5073174;28;20032;-74
2022/01/17 11:00:47;;;;;;;2.65;1.00;;;6.80;94.20;;;;;;5072916;28;20025;-75
2022/01/17 11:03:16;;;;;;;4.15;1.40;;;6.70;94.20;;;;;;5075041;28;20033;-77
2022/01/17 11:05:47;;;;;;;4.00;2.15;;;6.70;94.80;;;;;;5073091;28;20089;-77
2022/01/17 11:08:17;;;;;;;1.98;1.55;;;6.60;95.20;;;;;;5072744;28;20036;-77
2022/01/17 11:10:45;;;;;;;2.05;1.85;;;6.60;95.80;;;;;;5072727;28;20032;-78
2022/01/17 11:13:14;;;;;;;4.50;1.73;;;6.60;96.10;;;;;;5072638;28;20147;-77
2022/01/17 11:15:43;;;;;;;11.88;1.80;;;6.50;96.30;;;;;;5071702;28;20381;-78
2022/01/17 11:18:16;;;;;;;3.85;1.63;;;6.50;96.90;;;;;;5071662;28;20048;-78
2022/01/17 11:20:43;;;;;;;2.97;1.55;;;6.50;97.20;;;;;;5072897;28;20025;-77
2022/01/17 11:23:10;;;;;;;15.30;1.48;;;6.40;97.80;;;;;;5072718;28;20021;-81
2022/01/17 11:26:12;;;;;;;2.38;1.05;;;6.30;93.80;;;;;;5072811;28;20347;-79
2022/01/17 11:28:39;;;;;;;2.47;0.80;;;5.50;91.30;;;;;;5083693;28;20028;-78
2022/01/17 11:31:11;;;;;;;1.58;0.85;;;4.60;94.20;;;;;;5094885;28;20070;-78
2022/01/17 11:33:36;;;;;;;1.67;0.77;;;4.00;97.20;;;;;;5082585;28;20028;-78
2022/01/17 11:36:03;;;;;;;1.10;0.80;;;3.60;99.60;;;;;;5074475;28;20431;-78
2022/01/17 11:38:42;;;;;;;1.92;0.65;;;3.30;99.90;;;;;;5075433;28;20115;-80
2022/01/17 11:41:30;;;;;;;1.92;0.52;;;3.10;99.90;;;;;;5092993;28;20026;-78
2022/01/17 11:44:00;;;;;;;2.10;0.90;;;2.90;99.90;;;;;;5089657;28;20038;-78
2022/01/17 11:46:35;;;;;;;3.28;2.00;;;2.80;99.90;;;;;;5079976;28;20021;-77
2022/01/17 11:49:07;;;;;;;6.90;4.45;;;2.70;99.90;;;;;;5056836;28;20059;-78
2022/01/17 11:51:40;;;;;;;7.38;5.85;;;2.70;99.90;;;;;;5088539;28;20016;-81
2022/01/17 11:54:28;;;;;;;6.57;4.93;;;2.70;99.90;;;;;;5096758;28;20027;-81
2022/01/17 11:57:09;;;;;;;8.13;4.82;;;2.70;99.90;;;;;;5084967;28;20047;-78
2022/01/17 11:59:48;;;;;;;7.97;4.32;;;2.60;99.90;;;;;;5112393;28;20085;-82
2022/01/17 12:02:21;;;;;;;4.28;1.95;;;2.60;99.90;;;;;;5095999;28;20023;-79
2022/01/17 12:05:13;;;;;;;4.35;1.95;;;2.70;99.90;;;;;;5116393;28;20023;-81
2022/01/17 12:08:05;;;;;;;2.20;1.08;;;2.70;99.90;;;;;;5115461;28;20035;-76
2022/01/17 12:10:43;;;;;;;3.58;1.30;;;2.80;99.90;;;;;;5092305;28;20034;-77
2022/01/17 12:13:45;;;;;;;14.10;6.47;;;2.90;99.90;;;;;;5077096;28;20484;-78
2022/01/17 12:16:36;;;;;;;8.38;2.78;;;2.90;99.90;;;;;;5092782;28;20021;-79
2022/01/17 12:19:07;;;;;;;2.95;1.67;;;3.00;99.90;;;;;;5095167;28;20440;-80
2022/01/17 12:21:53;;;;;;;10.57;1.92;;;3.10;99.90;;;;;;5077050;28;20488;-79
2022/01/17 12:24:32;;;;;;;4.70;1.88;;;3.30;99.90;;;;;;5079171;28;20065;-79
2022/01/17 12:27:05;;;;;;;3.95;2.20;;;3.40;99.90;;;;;;5096044;28;20023;-79
2022/01/17 12:30:07;;;;;;;6.88;2.42;;;3.50;99.90;;;;;;5074667;28;20397;-78
2022/01/17 12:32:37;;;;;;;5.72;2.38;;;3.70;99.90;;;;;;5075957;28;20055;-78
2022/01/17 12:35:11;;;;;;;5.07;2.25;;;3.80;99.90;;;;;;5074726;28;20057;-79
2022/01/17 12:37:45;;;;;;;4.13;2.75;;;3.90;99.90;;;;;;5075646;28;20024;-75
2022/01/17 12:40:27;;;;;;;8.88;2.60;;;4.00;99.90;;;;;;5076081;28;20024;-79
2022/01/17 12:43:12;;;;;;;5.88;2.28;;;4.10;99.90;;;;;;5075232;28;20029;-78
2022/01/17 12:45:59;;;;;;;8.60;2.88;;;4.10;99.90;;;;;;5074231;28;20056;-77
2022/01/17 12:48:35;;;;;;;8.38;2.40;;;4.20;99.90;;;;;;5069015;28;20052;-77
2022/01/17 12:51:08;;;;;;;10.13;2.88;;;4.30;99.90;;;;;;5055207;28;20017;-77
2022/01/17 12:53:48;;;;;;;13.38;2.50;;;4.30;99.90;;;;;;5053945;28;20036;-80
2022/01/17 12:56:17;;;;;;;6.93;2.38;;;4.30;99.90;;;;;;5053413;28;20470;-79
2022/01/17 12:58:46;;;;;;;8.20;2.33;;;4.40;99.90;;;;;;5055156;28;20067;-76
2022/01/17 13:01:31;;;;;;;5.78;2.60;;;4.40;99.90;;;;;;5055223;28;20025;-76
2022/01/17 13:04:04;;;;;;;5.63;2.75;;;4.40;99.90;;;;;;5055273;28;20029;-79
2022/01/17 13:06:32;;;;;;;12.48;2.55;;;4.30;99.90;;;;;;5055249;28;20029;-77
2022/01/17 13:08:59;;;;;;;5.20;2.42;;;4.30;99.90;;;;;;5055012;28;20037;-76
2022/01/17 13:11:26;;;;;;;6.38;2.72;;;4.20;99.90;;;;;;5053869;28;20040;-79
2022/01/17 13:13:59;;;;;;;14.07;4.10;;;4.10;99.90;;;;;;5054770;28;20029;-79
2022/01/17 13:16:27;;;;;;;7.20;2.20;;;4.00;99.90;;;;;;5053687;28;20043;-75
2022/01/17 13:18:55;;;;;;;4.57;1.98;;;3.90;99.90;;;;;;5036797;28;20028;-76
2022/01/17 13:21:21;;;;;;;9.25;2.60;;;3.90;99.90;;;;;;5053496;28;20095;-76
2022/01/17 13:26:30;;;;;;;10.65;4.03;;;3.80;99.90;;;;;;5074423;28;20021;-77
2022/01/17 13:28:59;;;;;;;12.30;3.10;;;3.70;99.90;;;;;;5062408;28;20041;-77
2022/01/17 13:31:29;;;;;;;10.43;2.53;;;3.50;99.90;;;;;;5050242;28;20480;-76